createdAt,value
2017-11-27T13:11:49.108Z,81.2
2017-11-27T13:20:07.573Z,80
2017-11-27T16:05:42.418Z,85.08
2017-11-27T16:10:42.313Z,84.89
2017-11-27T16:15:42.308Z,84.99
2017-11-27T16:20:42.206Z,85.18
2017-11-27T16:25:42.149Z,85.85
2017-11-27T16:30:42.082Z,85.85
2017-11-27T16:35:42.026Z,86.05
2017-11-27T16:40:41.964Z,86.1
2017-11-27T16:45:41.905Z,86.14
2017-11-27T16:50:41.848Z,86.33
2017-11-27T16:55:41.787Z,87.15
2017-11-27T17:00:41.477Z,87.82
2017-11-27T17:05:41.680Z,88.06
2017-11-27T17:10:41.628Z,87.67
2017-11-27T17:15:41.572Z,87.29
2017-11-27T17:20:41.258Z,87.19
2017-11-27T17:25:41.455Z,87.38
2017-11-27T17:30:41.436Z,86.61
2017-11-27T17:35:41.396Z,86.66
2017-11-27T17:40:41.362Z,86.57
2017-11-27T17:45:41.251Z,86.47
2017-11-27T17:50:41.191Z,86.57
2017-11-27T17:55:41.150Z,86.38
2017-11-27T18:00:41.200Z,86.09
2017-11-27T18:05:40.794Z,86.18
2017-11-27T18:10:41.092Z,85.61
2017-11-27T18:15:40.944Z,85.51
2017-11-27T18:20:40.869Z,84.45
2017-11-27T18:25:40.823Z,84.55
2017-11-27T18:30:40.765Z,84.07
2017-11-27T18:35:40.446Z,84.36
2017-11-27T18:40:40.646Z,84.26
2017-11-27T18:45:40.620Z,84.26
2017-11-27T18:50:40.543Z,84.45
2017-11-27T18:55:40.509Z,84.07
2017-11-27T19:00:40.437Z,84.07
2017-11-27T19:05:40.392Z,83.53
2017-11-27T19:10:40.335Z,83.92
2017-11-27T19:15:40.273Z,83.73
2017-11-27T19:20:40.220Z,83.73
2017-11-27T19:25:40.164Z,83.83
2017-11-27T19:30:40.123Z,83.34
2017-11-27T19:35:40.055Z,83.44
2017-11-27T19:40:40.009Z,83.53
2017-11-27T19:45:39.954Z,83.15
2017-11-27T19:50:39.910Z,83.25
2017-11-27T19:55:39.845Z,82.76
2017-11-27T20:00:39.784Z,83.34
2017-11-27T20:05:39.729Z,82.38
2017-11-27T20:10:39.683Z,83.34
2017-11-27T20:15:39.640Z,82.29
2017-11-27T20:20:39.584Z,81.9
2017-11-27T20:25:39.509Z,81.99
2017-11-27T20:30:39.458Z,82.19
2017-11-27T20:35:39.402Z,82.29
2017-11-27T20:40:39.434Z,82.48
2017-11-27T20:45:39.281Z,82.29
2017-11-27T20:50:39.288Z,81.52
2017-11-27T20:55:39.239Z,82.19
2017-11-27T21:00:39.116Z,81.9
2017-11-27T21:05:39.078Z,82.09
2017-11-27T21:10:39.012Z,81.61
2017-11-27T21:15:38.971Z,80.46
2017-11-27T21:20:38.931Z,81.42
2017-11-27T21:25:38.860Z,81.71
2017-11-27T21:30:38.802Z,81.71
2017-11-27T21:35:38.787Z,81.42
2017-11-27T21:40:38.698Z,81.46
2017-11-27T21:45:38.652Z,81.37
2017-11-27T21:50:38.602Z,81.65
2017-11-27T21:55:38.571Z,81.75
2017-11-27T22:00:38.486Z,81.65
2017-11-27T22:05:38.423Z,81.65
2017-11-27T22:10:38.363Z,81.65
2017-11-27T22:15:38.310Z,82.23
2017-11-27T22:20:38.265Z,82.14
2017-11-27T22:25:38.203Z,81.99
2017-11-27T22:30:38.164Z,81.9
2017-11-27T22:35:37.833Z,82.09
2017-11-27T22:40:38.044Z,81.99
2017-11-27T22:45:37.990Z,81.52
2017-11-27T22:50:37.929Z,81.61
2017-11-27T22:55:37.886Z,81.42
2017-11-27T23:00:37.847Z,81.19
2017-11-27T23:05:37.775Z,80.99
2017-11-27T23:10:37.723Z,80.99
2017-11-27T23:15:37.661Z,80.9
2017-11-27T23:20:37.615Z,80.9
2017-11-27T23:25:37.285Z,81.05
2017-11-27T23:30:37.509Z,81.05
2017-11-27T23:35:37.466Z,80.96
2017-11-27T23:40:37.359Z,81.15
2017-11-27T23:45:37.300Z,80.96
2017-11-27T23:50:37.240Z,80.91
2017-11-27T23:55:37.179Z,80.91
